sensor_id;sensor_type;location;lat;lon;timestamp;temperature;humidity
56300;DHT22;42209;6.376;-10.782;2023-11-21T00:00:48;23.20;68.90
56300;DHT22;42209;6.376;-10.782;2023-11-21T00:03:16;22.90;63.50
56300;DHT22;42209;6.376;-10.782;2023-11-21T00:05:44;22.60;61.30
56300;DHT22;42209;6.376;-10.782;2023-11-21T00:08:13;22.40;61.60
56300;DHT22;42209;6.376;-10.782;2023-11-21T00:10:41;22.60;67.20
56300;DHT22;42209;6.376;-10.782;2023-11-21T00:13:10;22.80;69.20
56300;DHT22;42209;6.376;-10.782;2023-11-21T00:15:38;23.00;70.70
56300;DHT22;42209;6.376;-10.782;2023-11-21T00:18:36;23.20;71.80
56300;DHT22;42209;6.376;-10.782;2023-11-21T00:21:08;23.30;72.40
56300;DHT22;42209;6.376;-10.782;2023-11-21T00:23:39;23.30;68.30
56300;DHT22;42209;6.376;-10.782;2023-11-21T00:26:07;23.00;63.80
56300;DHT22;42209;6.376;-10.782;2023-11-21T00:28:37;22.70;61.90
56300;DHT22;42209;6.376;-10.782;2023-11-21T00:31:05;22.40;61.10
56300;DHT22;42209;6.376;-10.782;2023-11-21T00:33:34;22.50;66.90
56300;DHT22;42209;6.376;-10.782;2023-11-21T00:36:02;22.80;69.10
56300;DHT22;42209;6.376;-10.782;2023-11-21T00:38:31;23.00;70.70
56300;DHT22;42209;6.376;-10.782;2023-11-21T00:41:01;23.20;71.90
56300;DHT22;42209;6.376;-10.782;2023-11-21T00:43:29;23.30;71.50
56300;DHT22;42209;6.376;-10.782;2023-11-21T00:45:58;23.10;65.30
56300;DHT22;42209;6.376;-10.782;2023-11-21T00:48:26;22.80;62.50
56300;DHT22;42209;6.376;-10.782;2023-11-21T00:50:56;22.50;61.60
56300;DHT22;42209;6.376;-10.782;2023-11-21T00:53:25;22.60;67.40
56300;DHT22;42209;6.376;-10.782;2023-11-21T00:55:53;22.80;69.60
56300;DHT22;42209;6.376;-10.782;2023-11-21T00:58:23;23.00;70.90
56300;DHT22;42209;6.376;-10.782;2023-11-21T01:00:52;23.20;72.60
56300;DHT22;42209;6.376;-10.782;2023-11-21T01:03:21;23.30;70.90
56300;DHT22;42209;6.376;-10.782;2023-11-21T01:05:50;23.10;64.90
56300;DHT22;42209;6.376;-10.782;2023-11-21T01:08:19;22.70;62.30
56300;DHT22;42209;6.376;-10.782;2023-11-21T01:10:47;22.50;62.50
56300;DHT22;42209;6.376;-10.782;2023-11-21T01:13:16;22.60;67.80
56300;DHT22;42209;6.376;-10.782;2023-11-21T01:15:44;22.90;70.00
56300;DHT22;42209;6.376;-10.782;2023-11-21T01:18:13;23.10;71.30
56300;DHT22;42209;6.376;-10.782;2023-11-21T01:20:41;23.20;72.60
56300;DHT22;42209;6.376;-10.782;2023-11-21T01:23:10;23.30;69.90
56300;DHT22;42209;6.376;-10.782;2023-11-21T01:25:39;23.00;64.80
56300;DHT22;42209;6.376;-10.782;2023-11-21T01:28:09;22.70;62.50
56300;DHT22;42209;6.376;-10.782;2023-11-21T01:30:38;22.60;62.80
56300;DHT22;42209;6.376;-10.782;2023-11-21T01:33:07;22.60;68.00
56300;DHT22;42209;6.376;-10.782;2023-11-21T01:35:35;22.90;69.80
56300;DHT22;42209;6.376;-10.782;2023-11-21T01:38:03;23.10;71.50
56300;DHT22;42209;6.376;-10.782;2023-11-21T01:40:32;23.20;72.60
56300;DHT22;42209;6.376;-10.782;2023-11-21T01:43:00;23.30;72.00
56300;DHT22;42209;6.376;-10.782;2023-11-21T01:45:29;23.20;65.80
56300;DHT22;42209;6.376;-10.782;2023-11-21T01:47:59;22.80;63.00
56300;DHT22;42209;6.376;-10.782;2023-11-21T01:50:28;22.60;62.90
56300;DHT22;42209;6.376;-10.782;2023-11-21T01:52:57;22.70;68.30
56300;DHT22;42209;6.376;-10.782;2023-11-21T01:55:26;22.90;70.10
56300;DHT22;42209;6.376;-10.782;2023-11-21T01:57:56;23.10;71.50
56300;DHT22;42209;6.376;-10.782;2023-11-21T02:00:25;23.30;72.90
56300;DHT22;42209;6.376;-10.782;2023-11-21T02:02:55;23.30;72.70
56300;DHT22;42209;6.376;-10.782;2023-11-21T02:05:24;23.20;66.00
56300;DHT22;42209;6.376;-10.782;2023-11-21T02:07:52;22.80;63.40
56300;DHT22;42209;6.376;-10.782;2023-11-21T02:10:21;22.50;62.80
56300;DHT22;42209;6.376;-10.782;2023-11-21T02:12:50;22.60;68.30
56300;DHT22;42209;6.376;-10.782;2023-11-21T02:15:19;22.90;70.20
56300;DHT22;42209;6.376;-10.782;2023-11-21T02:17:50;23.10;71.50
56300;DHT22;42209;6.376;-10.782;2023-11-21T02:20:21;23.30;73.30
56300;DHT22;42209;6.376;-10.782;2023-11-21T02:22:51;23.40;73.10
56300;DHT22;42209;6.376;-10.782;2023-11-21T02:25:20;23.20;66.30
56300;DHT22;42209;6.376;-10.782;2023-11-21T02:27:49;22.80;63.50
56300;DHT22;42209;6.376;-10.782;2023-11-21T02:30:17;22.60;62.30
56300;DHT22;42209;6.376;-10.782;2023-11-21T02:32:46;22.70;68.30
56300;DHT22;42209;6.376;-10.782;2023-11-21T02:35:16;22.90;70.30
56300;DHT22;42209;6.376;-10.782;2023-11-21T02:37:44;23.10;71.70
56300;DHT22;42209;6.376;-10.782;2023-11-21T02:40:13;23.20;72.90
56300;DHT22;42209;6.376;-10.782;2023-11-21T02:42:41;23.30;74.10
56300;DHT22;42209;6.376;-10.782;2023-11-21T02:45:10;23.30;67.40
56300;DHT22;42209;6.376;-10.782;2023-11-21T02:47:39;22.90;64.10
56300;DHT22;42209;6.376;-10.782;2023-11-21T02:50:08;22.60;62.40
56300;DHT22;42209;6.376;-10.782;2023-11-21T02:52:37;22.60;67.70
56300;DHT22;42209;6.376;-10.782;2023-11-21T02:55:06;22.90;70.60
56300;DHT22;42209;6.376;-10.782;2023-11-21T02:57:34;23.00;72.30
56300;DHT22;42209;6.376;-10.782;2023-11-21T03:00:03;23.20;73.50
56300;DHT22;42209;6.376;-10.782;2023-11-21T03:02:31;23.40;74.40
56300;DHT22;42209;6.376;-10.782;2023-11-21T03:05:03;23.20;67.20
56300;DHT22;42209;6.376;-10.782;2023-11-21T03:07:31;22.90;64.10
56300;DHT22;42209;6.376;-10.782;2023-11-21T03:10:00;22.60;62.40
56300;DHT22;42209;6.376;-10.782;2023-11-21T03:12:29;22.60;67.90
56300;DHT22;42209;6.376;-10.782;2023-11-21T03:14:57;22.80;70.20
56300;DHT22;42209;6.376;-10.782;2023-11-21T03:17:26;23.00;71.40
56300;DHT22;42209;6.376;-10.782;2023-11-21T03:19:55;23.20;72.90
56300;DHT22;42209;6.376;-10.782;2023-11-21T03:22:23;23.30;74.00
56300;DHT22;42209;6.376;-10.782;2023-11-21T03:24:52;23.30;69.20
56300;DHT22;42209;6.376;-10.782;2023-11-21T03:27:21;23.00;64.60
56300;DHT22;42209;6.376;-10.782;2023-11-21T03:29:49;22.70;62.90
56300;DHT22;42209;6.376;-10.782;2023-11-21T03:32:18;22.60;66.90
56300;DHT22;42209;6.376;-10.782;2023-11-21T03:34:56;22.80;69.70
56300;DHT22;42209;6.376;-10.782;2023-11-21T03:37:26;23.00;71.50
56300;DHT22;42209;6.376;-10.782;2023-11-21T03:39:55;23.20;72.80
56300;DHT22;42209;6.376;-10.782;2023-11-21T03:42:23;23.30;74.10
56300;DHT22;42209;6.376;-10.782;2023-11-21T03:44:51;23.40;72.00
56300;DHT22;42209;6.376;-10.782;2023-11-21T03:47:20;23.10;66.20
56300;DHT22;42209;6.376;-10.782;2023-11-21T03:49:49;22.80;63.40
56300;DHT22;42209;6.376;-10.782;2023-11-21T03:52:17;22.60;65.10
56300;DHT22;42209;6.376;-10.782;2023-11-21T03:54:46;22.70;69.50
56300;DHT22;42209;6.376;-10.782;2023-11-21T03:57:14;22.90;71.30
56300;DHT22;42209;6.376;-10.782;2023-11-21T03:59:43;23.10;72.40
56300;DHT22;42209;6.376;-10.782;2023-11-21T04:02:11;23.30;73.30
56300;DHT22;42209;6.376;-10.782;2023-11-21T04:04:40;23.40;71.00
56300;DHT22;42209;6.376;-10.782;2023-11-21T04:07:08;23.00;65.80
56300;DHT22;42209;6.376;-10.782;2023-11-21T04:09:37;22.80;63.40
56300;DHT22;42209;6.376;-10.782;2023-11-21T04:12:06;22.50;65.10
56300;DHT22;42209;6.376;-10.782;2023-11-21T04:14:34;22.70;69.60
56300;DHT22;42209;6.376;-10.782;2023-11-21T04:17:02;22.90;71.40
56300;DHT22;42209;6.376;-10.782;2023-11-21T04:19:31;23.10;72.50
56300;DHT22;42209;6.376;-10.782;2023-11-21T04:21:59;23.30;73.80
56300;DHT22;42209;6.376;-10.782;2023-11-21T04:24:28;23.30;74.60
56300;DHT22;42209;6.376;-10.782;2023-11-21T04:26:56;23.20;67.00
56300;DHT22;42209;6.376;-10.782;2023-11-21T04:29:25;22.80;64.20
56300;DHT22;42209;6.376;-10.782;2023-11-21T04:31:54;22.60;63.00
56300;DHT22;42209;6.376;-10.782;2023-11-21T04:34:22;22.70;68.90
56300;DHT22;42209;6.376;-10.782;2023-11-21T04:36:54;22.80;71.50
56300;DHT22;42209;6.376;-10.782;2023-11-21T04:39:22;23.10;72.80
56300;DHT22;42209;6.376;-10.782;2023-11-21T04:41:51;23.30;74.20
56300;DHT22;42209;6.376;-10.782;2023-11-21T04:44:19;23.40;74.80
56300;DHT22;42209;6.376;-10.782;2023-11-21T04:46:48;23.20;67.60
56300;DHT22;42209;6.376;-10.782;2023-11-21T04:49:17;22.90;64.70
56300;DHT22;42209;6.376;-10.782;2023-11-21T04:51:45;22.60;63.40
56300;DHT22;42209;6.376;-10.782;2023-11-21T04:54:14;22.60;69.10
56300;DHT22;42209;6.376;-10.782;2023-11-21T04:56:42;22.90;71.20
56300;DHT22;42209;6.376;-10.782;2023-11-21T04:59:11;23.10;73.10
56300;DHT22;42209;6.376;-10.782;2023-11-21T05:01:39;23.20;73.70
56300;DHT22;42209;6.376;-10.782;2023-11-21T05:04:08;23.30;74.90
56300;DHT22;42209;6.376;-10.782;2023-11-21T05:06:36;23.20;67.60
56300;DHT22;42209;6.376;-10.782;2023-11-21T05:09:05;22.80;64.40
56300;DHT22;42209;6.376;-10.782;2023-11-21T05:11:33;22.60;63.40
56300;DHT22;42209;6.376;-10.782;2023-11-21T05:14:02;22.70;69.20
56300;DHT22;42209;6.376;-10.782;2023-11-21T05:16:30;22.90;71.20
56300;DHT22;42209;6.376;-10.782;2023-11-21T05:19:00;23.10;72.60
56300;DHT22;42209;6.376;-10.782;2023-11-21T05:21:28;23.20;74.00
56300;DHT22;42209;6.376;-10.782;2023-11-21T05:23:57;23.30;75.00
56300;DHT22;42209;6.376;-10.782;2023-11-21T05:26:25;23.30;69.10
56300;DHT22;42209;6.376;-10.782;2023-11-21T05:28:54;22.90;65.10
56300;DHT22;42209;6.376;-10.782;2023-11-21T05:31:22;22.70;63.40
56300;DHT22;42209;6.376;-10.782;2023-11-21T05:33:51;22.50;67.40
56300;DHT22;42209;6.376;-10.782;2023-11-21T05:36:19;22.80;70.90
56300;DHT22;42209;6.376;-10.782;2023-11-21T05:38:48;22.90;72.40
56300;DHT22;42209;6.376;-10.782;2023-11-21T05:41:16;23.20;73.60
56300;DHT22;42209;6.376;-10.782;2023-11-21T05:43:45;23.30;74.70
56300;DHT22;42209;6.376;-10.782;2023-11-21T05:46:13;23.30;73.50
56300;DHT22;42209;6.376;-10.782;2023-11-21T05:48:42;23.10;67.30
56300;DHT22;42209;6.376;-10.782;2023-11-21T05:51:11;22.80;64.60
56300;DHT22;42209;6.376;-10.782;2023-11-21T05:53:39;22.60;64.60
56300;DHT22;42209;6.376;-10.782;2023-11-21T05:56:07;22.70;70.10
56300;DHT22;42209;6.376;-10.782;2023-11-21T05:58:36;22.90;71.70
56300;DHT22;42209;6.376;-10.782;2023-11-21T06:01:06;23.10;73.10
56300;DHT22;42209;6.376;-10.782;2023-11-21T06:03:35;23.20;74.40
56300;DHT22;42209;6.376;-10.782;2023-11-21T06:06:04;23.30;75.40
56300;DHT22;42209;6.376;-10.782;2023-11-21T06:08:32;23.20;68.80
56300;DHT22;42209;6.376;-10.782;2023-11-21T06:11:01;22.90;64.90
56300;DHT22;42209;6.376;-10.782;2023-11-21T06:13:29;22.60;63.00
56300;DHT22;42209;6.376;-10.782;2023-11-21T06:15:58;22.60;68.90
56300;DHT22;42209;6.376;-10.782;2023-11-21T06:18:27;22.80;71.00
56300;DHT22;42209;6.376;-10.782;2023-11-21T06:20:55;23.00;72.70
56300;DHT22;42209;6.376;-10.782;2023-11-21T06:23:24;23.20;74.00
56300;DHT22;42209;6.376;-10.782;2023-11-21T06:25:52;23.30;74.90
56300;DHT22;42209;6.376;-10.782;2023-11-21T06:28:21;23.30;70.30
56300;DHT22;42209;6.376;-10.782;2023-11-21T06:30:49;23.00;65.90
56300;DHT22;42209;6.376;-10.782;2023-11-21T06:33:18;22.70;63.70
56300;DHT22;42209;6.376;-10.782;2023-11-21T06:35:47;22.60;68.10
56300;DHT22;42209;6.376;-10.782;2023-11-21T06:38:16;22.80;71.00
56300;DHT22;42209;6.376;-10.782;2023-11-21T06:40:45;23.00;72.20
56300;DHT22;42209;6.376;-10.782;2023-11-21T06:43:13;23.10;74.00
56300;DHT22;42209;6.376;-10.782;2023-11-21T06:45:42;23.20;74.70
56300;DHT22;42209;6.376;-10.782;2023-11-21T06:48:10;23.30;75.20
56300;DHT22;42209;6.376;-10.782;2023-11-21T06:50:39;23.20;68.00
56300;DHT22;42209;6.376;-10.782;2023-11-21T06:53:08;22.80;65.50
56300;DHT22;42209;6.376;-10.782;2023-11-21T06:55:38;22.60;64.20
56300;DHT22;42209;6.376;-10.782;2023-11-21T06:58:06;22.60;70.30
56300;DHT22;42209;6.376;-10.782;2023-11-21T07:00:35;22.80;72.50
56300;DHT22;42209;6.376;-10.782;2023-11-21T07:03:04;23.10;73.80
56300;DHT22;42209;6.376;-10.782;2023-11-21T07:05:33;23.20;75.10
56300;DHT22;42209;6.376;-10.782;2023-11-21T07:08:01;23.30;74.30
56300;DHT22;42209;6.376;-10.782;2023-11-21T07:10:33;23.10;68.00
56300;DHT22;42209;6.376;-10.782;2023-11-21T07:13:02;22.80;66.10
56300;DHT22;42209;6.376;-10.782;2023-11-21T07:15:30;22.60;65.50
56300;DHT22;42209;6.376;-10.782;2023-11-21T07:17:58;22.60;71.40
56300;DHT22;42209;6.376;-10.782;2023-11-21T07:20:27;22.90;73.80
56300;DHT22;42209;6.376;-10.782;2023-11-21T07:22:55;23.10;74.70
56300;DHT22;42209;6.376;-10.782;2023-11-21T07:25:24;23.20;75.60
56300;DHT22;42209;6.376;-10.782;2023-11-21T07:27:52;23.30;75.90
56300;DHT22;42209;6.376;-10.782;2023-11-21T07:30:21;23.20;69.20
56300;DHT22;42209;6.376;-10.782;2023-11-21T07:32:49;22.80;65.90
56300;DHT22;42209;6.376;-10.782;2023-11-21T07:35:18;22.60;65.20
56300;DHT22;42209;6.376;-10.782;2023-11-21T07:37:46;22.70;70.50
56300;DHT22;42209;6.376;-10.782;2023-11-21T07:40:15;22.90;72.80
56300;DHT22;42209;6.376;-10.782;2023-11-21T07:42:43;23.00;74.00
56300;DHT22;42209;6.376;-10.782;2023-11-21T07:45:12;23.20;75.20
56300;DHT22;42209;6.376;-10.782;2023-11-21T07:47:40;23.30;75.80
56300;DHT22;42209;6.376;-10.782;2023-11-21T07:50:09;23.20;69.20
56300;DHT22;42209;6.376;-10.782;2023-11-21T07:52:37;22.90;66.20
56300;DHT22;42209;6.376;-10.782;2023-11-21T07:55:06;22.70;68.00
56300;DHT22;42209;6.376;-10.782;2023-11-21T07:57:34;22.80;67.80
56300;DHT22;42209;6.376;-10.782;2023-11-21T08:00:04;22.80;66.60
56300;DHT22;42209;6.376;-10.782;2023-11-21T08:02:39;22.80;65.80
56300;DHT22;42209;6.376;-10.782;2023-11-21T08:05:08;22.80;65.60
56300;DHT22;42209;6.376;-10.782;2023-11-21T08:07:48;22.80;64.60
56300;DHT22;42209;6.376;-10.782;2023-11-21T08:10:17;22.70;63.40
56300;DHT22;42209;6.376;-10.782;2023-11-21T08:12:45;22.70;62.70
56300;DHT22;42209;6.376;-10.782;2023-11-21T08:15:14;22.70;61.60
56300;DHT22;42209;6.376;-10.782;2023-11-21T08:17:43;22.60;62.60
56300;DHT22;42209;6.376;-10.782;2023-11-21T08:20:12;22.60;62.00
56300;DHT22;42209;6.376;-10.782;2023-11-21T08:22:41;22.60;60.90
56300;DHT22;42209;6.376;-10.782;2023-11-21T08:25:09;22.60;60.50
56300;DHT22;42209;6.376;-10.782;2023-11-21T08:27:38;22.60;60.50
56300;DHT22;42209;6.376;-10.782;2023-11-21T08:30:07;22.60;60.80
56300;DHT22;42209;6.376;-10.782;2023-11-21T08:32:35;22.50;59.60
56300;DHT22;42209;6.376;-10.782;2023-11-21T08:35:04;22.50;59.40
56300;DHT22;42209;6.376;-10.782;2023-11-21T08:37:32;22.40;59.20
56300;DHT22;42209;6.376;-10.782;2023-11-21T08:40:01;22.50;59.60
56300;DHT22;42209;6.376;-10.782;2023-11-21T08:42:29;22.40;58.30
56300;DHT22;42209;6.376;-10.782;2023-11-21T08:44:58;22.20;57.60
56300;DHT22;42209;6.376;-10.782;2023-11-21T08:47:26;22.30;63.50
56300;DHT22;42209;6.376;-10.782;2023-11-21T08:49:55;22.50;65.90
56300;DHT22;42209;6.376;-10.782;2023-11-21T08:52:23;22.70;67.70
56300;DHT22;42209;6.376;-10.782;2023-11-21T08:57:04;22.90;69.50
56300;DHT22;42209;6.376;-10.782;2023-11-21T08:59:33;23.10;70.60
56300;DHT22;42209;6.376;-10.782;2023-11-21T09:02:01;23.10;67.60
56300;DHT22;42209;6.376;-10.782;2023-11-21T09:04:34;22.80;63.40
56300;DHT22;42209;6.376;-10.782;2023-11-21T09:09:54;22.30;63.80
56300;DHT22;42209;6.376;-10.782;2023-11-21T09:12:22;22.50;68.10
56300;DHT22;42209;6.376;-10.782;2023-11-21T09:14:50;22.70;71.10
56300;DHT22;42209;6.376;-10.782;2023-11-21T09:17:19;22.80;72.40
56300;DHT22;42209;6.376;-10.782;2023-11-21T09:19:47;22.90;73.60
56300;DHT22;42209;6.376;-10.782;2023-11-21T09:22:17;23.00;74.50
56300;DHT22;42209;6.376;-10.782;2023-11-21T09:24:45;23.10;75.00
56300;DHT22;42209;6.376;-10.782;2023-11-21T09:27:14;23.10;70.40
56300;DHT22;42209;6.376;-10.782;2023-11-21T09:29:42;22.80;64.10
56300;DHT22;42209;6.376;-10.782;2023-11-21T09:32:11;22.40;61.60
56300;DHT22;42209;6.376;-10.782;2023-11-21T09:34:39;22.30;65.40
56300;DHT22;42209;6.376;-10.782;2023-11-21T09:37:08;22.60;68.70
56300;DHT22;42209;6.376;-10.782;2023-11-21T09:39:36;22.80;70.30
56300;DHT22;42209;6.376;-10.782;2023-11-21T09:42:11;22.90;71.90
56300;DHT22;42209;6.376;-10.782;2023-11-21T09:44:45;23.10;73.20
56300;DHT22;42209;6.376;-10.782;2023-11-21T09:47:15;23.20;74.20
56300;DHT22;42209;6.376;-10.782;2023-11-21T09:49:50;23.20;68.70
56300;DHT22;42209;6.376;-10.782;2023-11-21T09:52:27;22.80;64.60
56300;DHT22;42209;6.376;-10.782;2023-11-21T09:54:56;22.50;62.80
56300;DHT22;42209;6.376;-10.782;2023-11-21T09:57:25;22.50;67.50
56300;DHT22;42209;6.376;-10.782;2023-11-21T09:59:55;22.70;70.40
56300;DHT22;42209;6.376;-10.782;2023-11-21T10:02:26;22.90;71.90
56300;DHT22;42209;6.376;-10.782;2023-11-21T10:04:55;23.10;73.40
56300;DHT22;42209;6.376;-10.782;2023-11-21T10:07:24;23.30;74.70
56300;DHT22;42209;6.376;-10.782;2023-11-21T10:09:53;23.20;68.70
56300;DHT22;42209;6.376;-10.782;2023-11-21T10:12:24;22.90;65.10
56300;DHT22;42209;6.376;-10.782;2023-11-21T10:14:54;22.60;63.40
56300;DHT22;42209;6.376;-10.782;2023-11-21T10:17:23;22.50;67.70
56300;DHT22;42209;6.376;-10.782;2023-11-21T10:19:54;22.70;70.30
56300;DHT22;42209;6.376;-10.782;2023-11-21T10:22:24;23.00;72.20
56300;DHT22;42209;6.376;-10.782;2023-11-21T10:24:54;23.10;73.50
56300;DHT22;42209;6.376;-10.782;2023-11-21T10:27:23;23.30;75.20
56300;DHT22;42209;6.376;-10.782;2023-11-21T10:29:51;23.30;69.80
56300;DHT22;42209;6.376;-10.782;2023-11-21T10:32:20;23.00;65.70
56300;DHT22;42209;6.376;-10.782;2023-11-21T10:34:58;22.70;63.70
56300;DHT22;42209;6.376;-10.782;2023-11-21T10:37:27;22.50;63.70
56300;DHT22;42209;6.376;-10.782;2023-11-21T10:39:59;22.60;69.10
56300;DHT22;42209;6.376;-10.782;2023-11-21T10:42:28;22.90;71.30
56300;DHT22;42209;6.376;-10.782;2023-11-21T10:44:56;23.10;73.30
56300;DHT22;42209;6.376;-10.782;2023-11-21T10:47:25;23.30;74.10
56300;DHT22;42209;6.376;-10.782;2023-11-21T10:49:54;23.20;69.20
56300;DHT22;42209;6.376;-10.782;2023-11-21T10:52:24;23.00;66.80
56300;DHT22;42209;6.376;-10.782;2023-11-21T10:54:56;22.80;64.30
56300;DHT22;42209;6.376;-10.782;2023-11-21T10:57:26;22.60;62.70
56300;DHT22;42209;6.376;-10.782;2023-11-21T10:59:54;22.60;67.20
56300;DHT22;42209;6.376;-10.782;2023-11-21T11:02:26;22.80;70.10
56300;DHT22;42209;6.376;-10.782;2023-11-21T11:04:57;23.00;71.60
56300;DHT22;42209;6.376;-10.782;2023-11-21T11:07:27;23.20;73.40
56300;DHT22;42209;6.376;-10.782;2023-11-21T11:09:58;23.30;70.20
56300;DHT22;42209;6.376;-10.782;2023-11-21T11:12:27;23.10;66.10
56300;DHT22;42209;6.376;-10.782;2023-11-21T11:14:56;22.80;63.50
56300;DHT22;42209;6.376;-10.782;2023-11-21T11:17:26;22.60;62.00
56300;DHT22;42209;6.376;-10.782;2023-11-21T11:19:55;22.50;65.40
56300;DHT22;42209;6.376;-10.782;2023-11-21T11:22:54;22.80;68.90
56300;DHT22;42209;6.376;-10.782;2023-11-21T11:28:20;23.20;72.70
56300;DHT22;42209;6.376;-10.782;2023-11-21T11:31:01;23.30;68.40
56300;DHT22;42209;6.376;-10.782;2023-11-21T11:33:55;23.00;64.70
56300;DHT22;42209;6.376;-10.782;2023-11-21T11:36:49;22.70;62.60
56300;DHT22;42209;6.376;-10.782;2023-11-21T11:39:35;22.60;61.40
56300;DHT22;42209;6.376;-10.782;2023-11-21T11:42:08;22.60;67.20
56300;DHT22;42209;6.376;-10.782;2023-11-21T11:47:22;23.10;71.50
56300;DHT22;42209;6.376;-10.782;2023-11-21T11:55:05;22.90;64.00
56300;DHT22;42209;6.376;-10.782;2023-11-21T11:57:34;22.70;63.00
56300;DHT22;42209;6.376;-10.782;2023-11-21T12:02:42;22.50;60.70
56300;DHT22;42209;6.376;-10.782;2023-11-21T12:05:11;22.40;64.50
56300;DHT22;42209;6.376;-10.782;2023-11-21T12:07:54;22.70;68.30
56300;DHT22;42209;6.376;-10.782;2023-11-21T12:10:24;23.00;70.50
56300;DHT22;42209;6.376;-10.782;2023-11-21T12:13:09;23.20;71.90
56300;DHT22;42209;6.376;-10.782;2023-11-21T12:15:38;23.30;66.70
56300;DHT22;42209;6.376;-10.782;2023-11-21T12:18:08;23.00;63.40
56300;DHT22;42209;6.376;-10.782;2023-11-21T12:20:36;22.70;62.00
56300;DHT22;42209;6.376;-10.782;2023-11-21T12:23:06;22.50;60.40
56300;DHT22;42209;6.376;-10.782;2023-11-21T12:25:35;22.50;63.80
56300;DHT22;42209;6.376;-10.782;2023-11-21T12:28:03;22.80;67.50
56300;DHT22;42209;6.376;-10.782;2023-11-21T12:30:34;23.00;69.20
56300;DHT22;42209;6.376;-10.782;2023-11-21T12:33:03;23.20;70.70
56300;DHT22;42209;6.376;-10.782;2023-11-21T12:35:34;23.30;68.70
56300;DHT22;42209;6.376;-10.782;2023-11-21T12:38:04;23.10;63.90
56300;DHT22;42209;6.376;-10.782;2023-11-21T12:40:33;22.80;62.10
56300;DHT22;42209;6.376;-10.782;2023-11-21T12:43:02;22.70;60.30
56300;DHT22;42209;6.376;-10.782;2023-11-21T12:45:30;22.50;60.40
56300;DHT22;42209;6.376;-10.782;2023-11-21T12:48:04;22.70;65.80
56300;DHT22;42209;6.376;-10.782;2023-11-21T12:50:33;22.90;68.10
56300;DHT22;42209;6.376;-10.782;2023-11-21T12:53:10;23.20;70.10
56300;DHT22;42209;6.376;-10.782;2023-11-21T12:55:39;23.40;70.60
56300;DHT22;42209;6.376;-10.782;2023-11-21T12:58:09;23.20;64.40
56300;DHT22;42209;6.376;-10.782;2023-11-21T13:00:43;22.90;62.20
56300;DHT22;42209;6.376;-10.782;2023-11-21T13:03:14;22.70;60.60
56300;DHT22;42209;6.376;-10.782;2023-11-21T13:05:44;22.60;59.70
56300;DHT22;42209;6.376;-10.782;2023-11-21T13:08:15;22.50;60.90
56300;DHT22;42209;6.376;-10.782;2023-11-21T13:10:45;22.80;66.00
56300;DHT22;42209;6.376;-10.782;2023-11-21T13:13:14;23.00;68.10
56300;DHT22;42209;6.376;-10.782;2023-11-21T13:15:52;23.20;69.80
56300;DHT22;42209;6.376;-10.782;2023-11-21T13:18:21;23.40;67.50
56300;DHT22;42209;6.376;-10.782;2023-11-21T13:20:50;23.20;62.70
56300;DHT22;42209;6.376;-10.782;2023-11-21T13:23:19;22.80;61.20
56300;DHT22;42209;6.376;-10.782;2023-11-21T13:25:47;22.70;60.50
56300;DHT22;42209;6.376;-10.782;2023-11-21T13:28:28;22.60;59.60
56300;DHT22;42209;6.376;-10.782;2023-11-21T13:30:57;22.60;63.40
56300;DHT22;42209;6.376;-10.782;2023-11-21T13:33:25;22.90;67.00
56300;DHT22;42209;6.376;-10.782;2023-11-21T13:35:54;23.20;69.00
56300;DHT22;42209;6.376;-10.782;2023-11-21T13:38:22;23.30;70.70
56300;DHT22;42209;6.376;-10.782;2023-11-21T13:40:52;23.30;64.60
56300;DHT22;42209;6.376;-10.782;2023-11-21T13:43:23;23.10;62.00
56300;DHT22;42209;6.376;-10.782;2023-11-21T13:45:53;22.80;60.50
56300;DHT22;42209;6.376;-10.782;2023-11-21T13:48:21;22.70;59.60
56300;DHT22;42209;6.376;-10.782;2023-11-21T13:50:50;22.60;58.70
56300;DHT22;42209;6.376;-10.782;2023-11-21T13:53:18;22.60;61.40
56300;DHT22;42209;6.376;-10.782;2023-11-21T13:55:47;22.80;65.70
56300;DHT22;42209;6.376;-10.782;2023-11-21T13:58:16;23.10;67.90
56300;DHT22;42209;6.376;-10.782;2023-11-21T14:00:45;23.30;69.80
56300;DHT22;42209;6.376;-10.782;2023-11-21T14:03:14;23.40;66.40
56300;DHT22;42209;6.376;-10.782;2023-11-21T14:05:44;23.20;62.50
56300;DHT22;42209;6.376;-10.782;2023-11-21T14:08:13;22.90;60.70
56300;DHT22;42209;6.376;-10.782;2023-11-21T14:11:57;22.60;58.50
56300;DHT22;42209;6.376;-10.782;2023-11-21T14:14:27;22.90;64.00
56300;DHT22;42209;6.376;-10.782;2023-11-21T14:16:56;23.10;67.50
56300;DHT22;42209;6.376;-10.782;2023-11-21T14:19:24;23.40;69.70
56300;DHT22;42209;6.376;-10.782;2023-11-21T16:54:17;23.30;59.30
56300;DHT22;42209;6.376;-10.782;2023-11-21T16:56:49;23.10;56.40
56300;DHT22;42209;6.376;-10.782;2023-11-21T16:59:18;22.90;55.80
56300;DHT22;42209;6.376;-10.782;2023-11-21T17:01:47;22.80;55.00
56300;DHT22;42209;6.376;-10.782;2023-11-21T17:04:15;22.70;54.00
56300;DHT22;42209;6.376;-10.782;2023-11-21T17:06:45;22.70;53.60
56300;DHT22;42209;6.376;-10.782;2023-11-21T17:09:13;22.70;52.70
56300;DHT22;42209;6.376;-10.782;2023-11-21T17:11:42;22.60;52.70
56300;DHT22;42209;6.376;-10.782;2023-11-21T17:14:12;22.50;51.80
56300;DHT22;42209;6.376;-10.782;2023-11-21T17:16:41;22.50;51.60
56300;DHT22;42209;6.376;-10.782;2023-11-21T17:19:09;22.50;50.80
56300;DHT22;42209;6.376;-10.782;2023-11-21T17:21:38;22.40;50.70
56300;DHT22;42209;6.376;-10.782;2023-11-21T17:24:07;22.40;50.10
56300;DHT22;42209;6.376;-10.782;2023-11-21T17:26:35;22.50;49.90
56300;DHT22;42209;6.376;-10.782;2023-11-21T17:29:03;22.40;49.60
56300;DHT22;42209;6.376;-10.782;2023-11-21T17:31:32;22.30;49.40
56300;DHT22;42209;6.376;-10.782;2023-11-21T17:34:00;22.40;50.10
56300;DHT22;42209;6.376;-10.782;2023-11-21T17:36:29;22.40;49.40
56300;DHT22;42209;6.376;-10.782;2023-11-21T17:38:57;22.30;49.90
56300;DHT22;42209;6.376;-10.782;2023-11-21T17:41:25;22.30;50.80
56300;DHT22;42209;6.376;-10.782;2023-11-21T17:43:54;22.60;56.30
56300;DHT22;42209;6.376;-10.782;2023-11-21T17:46:23;22.90;59.60
56300;DHT22;42209;6.376;-10.782;2023-11-21T17:48:53;23.20;61.80
56300;DHT22;42209;6.376;-10.782;2023-11-21T17:51:22;23.40;60.60
56300;DHT22;42209;6.376;-10.782;2023-11-21T17:53:51;23.40;56.50
56300;DHT22;42209;6.376;-10.782;2023-11-21T17:56:19;23.20;55.40
56300;DHT22;42209;6.376;-10.782;2023-11-21T17:58:48;23.20;55.60
56300;DHT22;42209;6.376;-10.782;2023-11-21T18:01:16;23.20;55.50
56300;DHT22;42209;6.376;-10.782;2023-11-21T18:03:44;23.20;54.90
56300;DHT22;42209;6.376;-10.782;2023-11-21T18:06:13;23.20;55.00
56300;DHT22;42209;6.376;-10.782;2023-11-21T18:08:41;23.10;54.90
56300;DHT22;42209;6.376;-10.782;2023-11-21T18:11:09;23.20;55.20
56300;DHT22;42209;6.376;-10.782;2023-11-21T18:13:38;23.20;54.30
56300;DHT22;42209;6.376;-10.782;2023-11-21T18:16:07;23.10;55.10
56300;DHT22;42209;6.376;-10.782;2023-11-21T18:18:35;23.10;54.80
56300;DHT22;42209;6.376;-10.782;2023-11-21T18:21:03;23.10;54.80